<?xml version="1.0" encoding="UTF-8" standalone="no" ?>
<gpx xmlns="http://www.topografix.com/GPX/1/1" xmlns:xsi="http://www.w3.org/2001/XMLSchema-instance" xsi:schemaLocation="http://www.topografix.com/GPX/1/1 http://www.topografix.com/GPX/1/1/gpx.xsd" version="1.1" creator="VisuGPX - https://www.visugpx.com">
  <metadata>
    <name>VTT Chars 22/04/2012</name>
    <desc><![CDATA[Belle petite sortie sur terrain gras.]]></desc>
  </metadata>
  <trk>
    <name><![CDATA[TKLG002A]]></name>
    <trkseg>
      <trkpt lat="49.15857" lon="1.93677">
        <ele>64</ele>
        <time>2012-04-22T06:40:24.660Z</time>
      </trkpt>
      <trkpt lat="49.16" lon="1.9371">
        <ele>73</ele>
        <time>2012-04-22T06:52:04.670Z</time>
      </trkpt>
      <trkpt lat="49.16042" lon="1.93908">
        <ele>80</ele>
        <time>2012-04-22T06:54:52.660Z</time>
      </trkpt>
      <trkpt lat="49.16017" lon="1.93718">
        <ele>69</ele>
        <time>2012-04-22T07:01:46.680Z</time>
      </trkpt>
      <trkpt lat="49.15897" lon="1.93665">
        <ele>66</ele>
        <time>2012-04-22T07:02:27.680Z</time>
      </trkpt>
      <trkpt lat="49.157" lon="1.9368">
        <ele>63</ele>
        <time>2012-04-22T07:03:18.670Z</time>
      </trkpt>
      <trkpt lat="49.15528" lon="1.93812">
        <ele>64</ele>
        <time>2012-04-22T07:03:56.680Z</time>
      </trkpt>
      <trkpt lat="49.15337" lon="1.93965">
        <ele>60</ele>
        <time>2012-04-22T07:04:40.680Z</time>
      </trkpt>
      <trkpt lat="49.15287" lon="1.9387">
        <ele>71</ele>
        <time>2012-04-22T07:05:34.680Z</time>
      </trkpt>
      <trkpt lat="49.15213" lon="1.93975">
        <ele>68</ele>
        <time>2012-04-22T07:06:07.680Z</time>
      </trkpt>
      <trkpt lat="49.15153" lon="1.93907">
        <ele>66</ele>
        <time>2012-04-22T07:06:28.680Z</time>
      </trkpt>
      <trkpt lat="49.15143" lon="1.93752">
        <ele>66</ele>
        <time>2012-04-22T07:06:50.680Z</time>
      </trkpt>
      <trkpt lat="49.15075" lon="1.93667">
        <ele>69</ele>
        <time>2012-04-22T07:07:10.690Z</time>
      </trkpt>
      <trkpt lat="49.14937" lon="1.9358">
        <ele>68</ele>
        <time>2012-04-22T07:07:55.200Z</time>
      </trkpt>
      <trkpt lat="49.1478" lon="1.93598">
        <ele>68</ele>
        <time>2012-04-22T07:08:35.680Z</time>
      </trkpt>
      <trkpt lat="49.14678" lon="1.93615">
        <ele>57</ele>
        <time>2012-04-22T07:08:52.690Z</time>
      </trkpt>
      <trkpt lat="49.14553" lon="1.93537">
        <ele>61</ele>
        <time>2012-04-22T07:09:24.680Z</time>
      </trkpt>
      <trkpt lat="49.14423" lon="1.93505">
        <ele>65</ele>
        <time>2012-04-22T07:10:05.290Z</time>
      </trkpt>
      <trkpt lat="49.14217" lon="1.93573">
        <ele>77</ele>
        <time>2012-04-22T07:10:44.700Z</time>
      </trkpt>
      <trkpt lat="49.14098" lon="1.93528">
        <ele>67</ele>
        <time>2012-04-22T07:11:09.700Z</time>
      </trkpt>
      <trkpt lat="49.14015" lon="1.9346">
        <ele>61</ele>
        <time>2012-04-22T07:11:30.230Z</time>
      </trkpt>
      <trkpt lat="49.13873" lon="1.93557">
        <ele>59</ele>
        <time>2012-04-22T07:12:39.690Z</time>
      </trkpt>
      <trkpt lat="49.13722" lon="1.93727">
        <ele>59</ele>
        <time>2012-04-22T07:12:44.690Z</time>
      </trkpt>
      <trkpt lat="49.13665" lon="1.9388">
        <ele>75</ele>
        <time>2012-04-22T07:13:17.220Z</time>
      </trkpt>
      <trkpt lat="49.13588" lon="1.94017">
        <ele>71</ele>
        <time>2012-04-22T07:14:03.700Z</time>
      </trkpt>
      <trkpt lat="49.13532" lon="1.9407">
        <ele>72</ele>
        <time>2012-04-22T07:14:21.210Z</time>
      </trkpt>
      <trkpt lat="49.13385" lon="1.94235">
        <ele>73</ele>
        <time>2012-04-22T07:15:13.700Z</time>
      </trkpt>
      <trkpt lat="49.13297" lon="1.9434">
        <ele>62</ele>
        <time>2012-04-22T07:15:32.700Z</time>
      </trkpt>
      <trkpt lat="49.13138" lon="1.94452">
        <ele>70</ele>
        <time>2012-04-22T07:16:15.300Z</time>
      </trkpt>
      <trkpt lat="49.13057" lon="1.94547">
        <ele>63</ele>
        <time>2012-04-22T07:16:52.690Z</time>
      </trkpt>
      <trkpt lat="49.12977" lon="1.9465">
        <ele>67</ele>
        <time>2012-04-22T07:17:26.700Z</time>
      </trkpt>
      <trkpt lat="49.12863" lon="1.94708">
        <ele>68</ele>
        <time>2012-04-22T07:18:05.700Z</time>
      </trkpt>
      <trkpt lat="49.12777" lon="1.94698">
        <ele>75</ele>
        <time>2012-04-22T07:18:44.250Z</time>
      </trkpt>
      <trkpt lat="49.12625" lon="1.94725">
        <ele>68</ele>
        <time>2012-04-22T07:19:23.700Z</time>
      </trkpt>
      <trkpt lat="49.12522" lon="1.94737">
        <ele>64</ele>
        <time>2012-04-22T07:19:47.700Z</time>
      </trkpt>
      <trkpt lat="49.12428" lon="1.94822">
        <ele>64</ele>
        <time>2012-04-22T07:20:17.700Z</time>
      </trkpt>
      <trkpt lat="49.12545" lon="1.95017">
        <ele>60</ele>
        <time>2012-04-22T07:23:04.710Z</time>
      </trkpt>
      <trkpt lat="49.12548" lon="1.9515">
        <ele>72</ele>
        <time>2012-04-22T07:23:31.700Z</time>
      </trkpt>
      <trkpt lat="49.12573" lon="1.9526">
        <ele>85</ele>
        <time>2012-04-22T07:24:12.710Z</time>
      </trkpt>
      <trkpt lat="49.12573" lon="1.95368">
        <ele>95</ele>
        <time>2012-04-22T07:24:47.710Z</time>
      </trkpt>
      <trkpt lat="49.12592" lon="1.95497">
        <ele>99</ele>
        <time>2012-04-22T07:25:27.710Z</time>
      </trkpt>
      <trkpt lat="49.12623" lon="1.95712">
        <ele>96</ele>
        <time>2012-04-22T07:26:21.700Z</time>
      </trkpt>
      <trkpt lat="49.12692" lon="1.95933">
        <ele>96</ele>
        <time>2012-04-22T07:27:10.710Z</time>
      </trkpt>
      <trkpt lat="49.128" lon="1.9615">
        <ele>96</ele>
        <time>2012-04-22T07:28:19.710Z</time>
      </trkpt>
      <trkpt lat="49.12865" lon="1.96293">
        <ele>95</ele>
        <time>2012-04-22T07:29:01.700Z</time>
      </trkpt>
      <trkpt lat="49.13028" lon="1.9606">
        <ele>101</ele>
        <time>2012-04-22T07:30:33.710Z</time>
      </trkpt>
      <trkpt lat="49.1318" lon="1.9583">
        <ele>106</ele>
        <time>2012-04-22T07:32:09.710Z</time>
      </trkpt>
      <trkpt lat="49.13262" lon="1.95563">
        <ele>102</ele>
        <time>2012-04-22T07:33:03.710Z</time>
      </trkpt>
      <trkpt lat="49.13307" lon="1.95332">
        <ele>97</ele>
        <time>2012-04-22T07:33:41.720Z</time>
      </trkpt>
      <trkpt lat="49.13363" lon="1.95123">
        <ele>92</ele>
        <time>2012-04-22T07:34:39.720Z</time>
      </trkpt>
      <trkpt lat="49.13457" lon="1.94812">
        <ele>79</ele>
        <time>2012-04-22T07:35:22.720Z</time>
      </trkpt>
      <trkpt lat="49.13633" lon="1.94698">
        <ele>63</ele>
        <time>2012-04-22T07:36:19.720Z</time>
      </trkpt>
      <trkpt lat="49.13712" lon="1.94615">
        <ele>68</ele>
        <time>2012-04-22T07:36:41.720Z</time>
      </trkpt>
      <trkpt lat="49.13758" lon="1.94508">
        <ele>65</ele>
        <time>2012-04-22T07:37:09.720Z</time>
      </trkpt>
      <trkpt lat="49.13815" lon="1.94515">
        <ele>78</ele>
        <time>2012-04-22T07:38:27.720Z</time>
      </trkpt>
      <trkpt lat="49.1386" lon="1.9457">
        <ele>98</ele>
        <time>2012-04-22T07:39:20.720Z</time>
      </trkpt>
      <trkpt lat="49.13988" lon="1.94702">
        <ele>133</ele>
        <time>2012-04-22T07:41:12.730Z</time>
      </trkpt>
      <trkpt lat="49.13815" lon="1.95145">
        <ele>113</ele>
        <time>2012-04-22T07:43:01.730Z</time>
      </trkpt>
      <trkpt lat="49.13758" lon="1.95503">
        <ele>112</ele>
        <time>2012-04-22T07:44:01.720Z</time>
      </trkpt>
      <trkpt lat="49.13753" lon="1.95603">
        <ele>112</ele>
        <time>2012-04-22T07:44:20.740Z</time>
      </trkpt>
      <trkpt lat="49.13958" lon="1.95737">
        <ele>107</ele>
        <time>2012-04-22T07:46:03.740Z</time>
      </trkpt>
      <trkpt lat="49.14333" lon="1.95975">
        <ele>101</ele>
        <time>2012-04-22T07:47:07.730Z</time>
      </trkpt>
      <trkpt lat="49.14475" lon="1.96093">
        <ele>102</ele>
        <time>2012-04-22T07:47:41.740Z</time>
      </trkpt>
      <trkpt lat="49.14523" lon="1.96413">
        <ele>102</ele>
        <time>2012-04-22T07:48:53.730Z</time>
      </trkpt>
      <trkpt lat="49.14613" lon="1.96395">
        <ele>95</ele>
        <time>2012-04-22T07:49:17.740Z</time>
      </trkpt>
      <trkpt lat="49.1461" lon="1.96645">
        <ele>96</ele>
        <time>2012-04-22T07:49:55.730Z</time>
      </trkpt>
      <trkpt lat="49.1458" lon="1.96808">
        <ele>98</ele>
        <time>2012-04-22T07:50:27.740Z</time>
      </trkpt>
      <trkpt lat="49.14598" lon="1.97057">
        <ele>99</ele>
        <time>2012-04-22T07:51:14.750Z</time>
      </trkpt>
      <trkpt lat="49.14597" lon="1.97242">
        <ele>98</ele>
        <time>2012-04-22T07:51:56.750Z</time>
      </trkpt>
      <trkpt lat="49.14702" lon="1.97377">
        <ele>100</ele>
        <time>2012-04-22T07:52:51.750Z</time>
      </trkpt>
      <trkpt lat="49.146" lon="1.97662">
        <ele>105</ele>
        <time>2012-04-22T07:53:45.750Z</time>
      </trkpt>
      <trkpt lat="49.14642" lon="1.97862">
        <ele>111</ele>
        <time>2012-04-22T07:54:19.750Z</time>
      </trkpt>
      <trkpt lat="49.14723" lon="1.98118">
        <ele>131</ele>
        <time>2012-04-22T07:55:06.280Z</time>
      </trkpt>
      <trkpt lat="49.14742" lon="1.98385">
        <ele>128</ele>
        <time>2012-04-22T07:55:46.740Z</time>
      </trkpt>
      <trkpt lat="49.14683" lon="1.98508">
        <ele>127</ele>
        <time>2012-04-22T07:56:15.740Z</time>
      </trkpt>
      <trkpt lat="49.14528" lon="1.98658">
        <ele>128</ele>
        <time>2012-04-22T07:57:03.750Z</time>
      </trkpt>
      <trkpt lat="49.14615" lon="1.98847">
        <ele>134</ele>
        <time>2012-04-22T07:57:48.750Z</time>
      </trkpt>
      <trkpt lat="49.14732" lon="1.99083">
        <ele>148</ele>
        <time>2012-04-22T07:59:29.750Z</time>
      </trkpt>
      <trkpt lat="49.14797" lon="1.99145">
        <ele>149</ele>
        <time>2012-04-22T08:00:14.760Z</time>
      </trkpt>
      <trkpt lat="49.14772" lon="1.99327">
        <ele>157</ele>
        <time>2012-04-22T08:02:40.750Z</time>
      </trkpt>
      <trkpt lat="49.14837" lon="1.99493">
        <ele>159</ele>
        <time>2012-04-22T08:03:15.290Z</time>
      </trkpt>
      <trkpt lat="49.14902" lon="1.99653">
        <ele>158</ele>
        <time>2012-04-22T08:03:47.760Z</time>
      </trkpt>
      <trkpt lat="49.14918" lon="1.99803">
        <ele>158</ele>
        <time>2012-04-22T08:04:18.760Z</time>
      </trkpt>
      <trkpt lat="49.14857" lon="1.99987">
        <ele>195</ele>
        <time>2012-04-22T08:05:26.780Z</time>
      </trkpt>
      <trkpt lat="49.1484" lon="2.00267">
        <ele>195</ele>
        <time>2012-04-22T08:05:46.770Z</time>
      </trkpt>
      <trkpt lat="49.14828" lon="2.00365">
        <ele>179</ele>
        <time>2012-04-22T08:05:50.330Z</time>
      </trkpt>
      <trkpt lat="49.14805" lon="2.00542">
        <ele>169</ele>
        <time>2012-04-22T08:06:27.300Z</time>
      </trkpt>
      <trkpt lat="49.14772" lon="2.00678">
        <ele>172</ele>
        <time>2012-04-22T08:07:02.800Z</time>
      </trkpt>
      <trkpt lat="49.14735" lon="2.00792">
        <ele>192</ele>
        <time>2012-04-22T08:07:30.390Z</time>
      </trkpt>
      <trkpt lat="49.14715" lon="2.00857">
        <ele>199</ele>
        <time>2012-04-22T08:07:53.770Z</time>
      </trkpt>
      <trkpt lat="49.14675" lon="2.00958">
        <ele>200</ele>
        <time>2012-04-22T08:10:46.770Z</time>
      </trkpt>
      <trkpt lat="49.1474" lon="2.00975">
        <ele>182</ele>
        <time>2012-04-22T08:11:22.770Z</time>
      </trkpt>
      <trkpt lat="49.1481" lon="2.00932">
        <ele>191</ele>
        <time>2012-04-22T08:12:00.760Z</time>
      </trkpt>
      <trkpt lat="49.14905" lon="2.0082">
        <ele>198</ele>
        <time>2012-04-22T08:13:05.780Z</time>
      </trkpt>
      <trkpt lat="49.1499" lon="2.00758">
        <ele>203</ele>
        <time>2012-04-22T08:13:43.780Z</time>
      </trkpt>
      <trkpt lat="49.15105" lon="2.00612">
        <ele>206</ele>
        <time>2012-04-22T08:14:40.770Z</time>
      </trkpt>
      <trkpt lat="49.15167" lon="2.00508">
        <ele>202</ele>
        <time>2012-04-22T08:15:15.780Z</time>
      </trkpt>
      <trkpt lat="49.15208" lon="2.00438">
        <ele>209</ele>
        <time>2012-04-22T08:15:59.780Z</time>
      </trkpt>
      <trkpt lat="49.15252" lon="2.00403">
        <ele>214</ele>
        <time>2012-04-22T08:17:52.770Z</time>
      </trkpt>
      <trkpt lat="49.1524" lon="2.00698">
        <ele>207</ele>
        <time>2012-04-22T08:18:52.320Z</time>
      </trkpt>
      <trkpt lat="49.15317" lon="2.00962">
        <ele>193</ele>
        <time>2012-04-22T08:19:10.770Z</time>
      </trkpt>
      <trkpt lat="49.15343" lon="2.01035">
        <ele>170</ele>
        <time>2012-04-22T08:19:57.780Z</time>
      </trkpt>
      <trkpt lat="49.15252" lon="2.01202">
        <ele>162</ele>
        <time>2012-04-22T08:20:25.770Z</time>
      </trkpt>
      <trkpt lat="49.15218" lon="2.01493">
        <ele>150</ele>
        <time>2012-04-22T08:20:50.770Z</time>
      </trkpt>
      <trkpt lat="49.15327" lon="2.02157">
        <ele>127</ele>
        <time>2012-04-22T08:21:38.780Z</time>
      </trkpt>
      <trkpt lat="49.15693" lon="2.01652">
        <ele>129</ele>
        <time>2012-04-22T08:23:48.770Z</time>
      </trkpt>
      <trkpt lat="49.158" lon="2.0156">
        <ele>126</ele>
        <time>2012-04-22T08:24:14.800Z</time>
      </trkpt>
      <trkpt lat="49.16025" lon="2.0132">
        <ele>130</ele>
        <time>2012-04-22T08:25:42.780Z</time>
      </trkpt>
      <trkpt lat="49.16078" lon="2.0115">
        <ele>130</ele>
        <time>2012-04-22T08:29:54.780Z</time>
      </trkpt>
      <trkpt lat="49.1626" lon="2.00967">
        <ele>135</ele>
        <time>2012-04-22T08:31:25.790Z</time>
      </trkpt>
      <trkpt lat="49.1645" lon="2.00637">
        <ele>139</ele>
        <time>2012-04-22T08:33:23.790Z</time>
      </trkpt>
      <trkpt lat="49.16478" lon="2.0057">
        <ele>138</ele>
        <time>2012-04-22T08:36:32.800Z</time>
      </trkpt>
      <trkpt lat="49.1657" lon="2.00542">
        <ele>139</ele>
        <time>2012-04-22T08:38:01.800Z</time>
      </trkpt>
      <trkpt lat="49.16695" lon="2.00588">
        <ele>140</ele>
        <time>2012-04-22T08:38:50.800Z</time>
      </trkpt>
      <trkpt lat="49.16942" lon="2.00443">
        <ele>172</ele>
        <time>2012-04-22T08:40:30.800Z</time>
      </trkpt>
      <trkpt lat="49.17007" lon="2.00375">
        <ele>177</ele>
        <time>2012-04-22T08:41:31.800Z</time>
      </trkpt>
      <trkpt lat="49.17058" lon="2.00333">
        <ele>173</ele>
        <time>2012-04-22T08:42:14.810Z</time>
      </trkpt>
      <trkpt lat="49.17082" lon="2.00498">
        <ele>173</ele>
        <time>2012-04-22T08:43:22.810Z</time>
      </trkpt>
      <trkpt lat="49.17155" lon="2.00603">
        <ele>194</ele>
        <time>2012-04-22T08:43:56.800Z</time>
      </trkpt>
      <trkpt lat="49.17218" lon="2.00702">
        <ele>180</ele>
        <time>2012-04-22T08:44:45.380Z</time>
      </trkpt>
      <trkpt lat="49.1727" lon="2.00777">
        <ele>198</ele>
        <time>2012-04-22T08:45:36.820Z</time>
      </trkpt>
      <trkpt lat="49.17427" lon="2.00968">
        <ele>215</ele>
        <time>2012-04-22T08:46:13.810Z</time>
      </trkpt>
      <trkpt lat="49.1747" lon="2.01092">
        <ele>205</ele>
        <time>2012-04-22T08:49:34.480Z</time>
      </trkpt>
      <trkpt lat="49.1763" lon="2.01257">
        <ele>206</ele>
        <time>2012-04-22T08:50:07.830Z</time>
      </trkpt>
      <trkpt lat="49.17645" lon="2.01358">
        <ele>191</ele>
        <time>2012-04-22T08:50:25.830Z</time>
      </trkpt>
      <trkpt lat="49.17697" lon="2.01603">
        <ele>196</ele>
        <time>2012-04-22T08:51:10.810Z</time>
      </trkpt>
      <trkpt lat="49.17705" lon="2.01792">
        <ele>194</ele>
        <time>2012-04-22T08:51:37.820Z</time>
      </trkpt>
      <trkpt lat="49.17718" lon="2.01898">
        <ele>189</ele>
        <time>2012-04-22T08:51:57.830Z</time>
      </trkpt>
      <trkpt lat="49.17745" lon="2.0195">
        <ele>214</ele>
        <time>2012-04-22T08:52:57.830Z</time>
      </trkpt>
      <trkpt lat="49.17783" lon="2.01895">
        <ele>218</ele>
        <time>2012-04-22T08:53:48.830Z</time>
      </trkpt>
      <trkpt lat="49.17807" lon="2.01748">
        <ele>233</ele>
        <time>2012-04-22T08:54:56.830Z</time>
      </trkpt>
      <trkpt lat="49.17833" lon="2.01613">
        <ele>246</ele>
        <time>2012-04-22T08:56:15.820Z</time>
      </trkpt>
      <trkpt lat="49.17852" lon="2.0153">
        <ele>222</ele>
        <time>2012-04-22T08:59:32.840Z</time>
      </trkpt>
      <trkpt lat="49.17945" lon="2.01395">
        <ele>223</ele>
        <time>2012-04-22T09:00:23.840Z</time>
      </trkpt>
      <trkpt lat="49.18048" lon="2.01175">
        <ele>203</ele>
        <time>2012-04-22T09:00:55.830Z</time>
      </trkpt>
      <trkpt lat="49.18138" lon="2.01065">
        <ele>178</ele>
        <time>2012-04-22T09:01:11.830Z</time>
      </trkpt>
      <trkpt lat="49.18188" lon="2.0099">
        <ele>172</ele>
        <time>2012-04-22T09:01:28.830Z</time>
      </trkpt>
      <trkpt lat="49.18237" lon="2.00868">
        <ele>166</ele>
        <time>2012-04-22T09:02:22.830Z</time>
      </trkpt>
      <trkpt lat="49.18467" lon="2.00532">
        <ele>161</ele>
        <time>2012-04-22T09:03:12.840Z</time>
      </trkpt>
      <trkpt lat="49.18498" lon="2.00458">
        <ele>158</ele>
        <time>2012-04-22T09:10:46.840Z</time>
      </trkpt>
      <trkpt lat="49.18512" lon="2.00353">
        <ele>153</ele>
        <time>2012-04-22T09:11:22.850Z</time>
      </trkpt>
      <trkpt lat="49.18562" lon="2.00073">
        <ele>146</ele>
        <time>2012-04-22T09:12:04.850Z</time>
      </trkpt>
      <trkpt lat="49.18605" lon="1.99963">
        <ele>148</ele>
        <time>2012-04-22T09:12:33.860Z</time>
      </trkpt>
      <trkpt lat="49.18688" lon="1.99718">
        <ele>142</ele>
        <time>2012-04-22T09:13:13.860Z</time>
      </trkpt>
      <trkpt lat="49.1874" lon="1.9942">
        <ele>142</ele>
        <time>2012-04-22T09:13:45.850Z</time>
      </trkpt>
      <trkpt lat="49.18695" lon="1.99357">
        <ele>149</ele>
        <time>2012-04-22T09:16:36.850Z</time>
      </trkpt>
      <trkpt lat="49.18633" lon="1.99137">
        <ele>144</ele>
        <time>2012-04-22T09:17:20.850Z</time>
      </trkpt>
      <trkpt lat="49.18732" lon="1.98953">
        <ele>133</ele>
        <time>2012-04-22T09:17:48.860Z</time>
      </trkpt>
      <trkpt lat="49.18697" lon="1.98258">
        <ele>123</ele>
        <time>2012-04-22T09:18:41.850Z</time>
      </trkpt>
      <trkpt lat="49.18532" lon="1.97777">
        <ele>114</ele>
        <time>2012-04-22T09:19:37.860Z</time>
      </trkpt>
      <trkpt lat="49.18388" lon="1.97552">
        <ele>105</ele>
        <time>2012-04-22T09:20:06.850Z</time>
      </trkpt>
      <trkpt lat="49.18338" lon="1.97428">
        <ele>103</ele>
        <time>2012-04-22T09:20:33.860Z</time>
      </trkpt>
      <trkpt lat="49.18223" lon="1.9689">
        <ele>121</ele>
        <time>2012-04-22T09:23:05.860Z</time>
      </trkpt>
      <trkpt lat="49.18137" lon="1.96543">
        <ele>130</ele>
        <time>2012-04-22T09:24:19.860Z</time>
      </trkpt>
      <trkpt lat="49.18147" lon="1.95875">
        <ele>120</ele>
        <time>2012-04-22T09:25:31.870Z</time>
      </trkpt>
      <trkpt lat="49.18147" lon="1.95607">
        <ele>118</ele>
        <time>2012-04-22T09:26:04.870Z</time>
      </trkpt>
      <trkpt lat="49.18102" lon="1.9542">
        <ele>121</ele>
        <time>2012-04-22T09:26:41.870Z</time>
      </trkpt>
      <trkpt lat="49.18028" lon="1.95243">
        <ele>113</ele>
        <time>2012-04-22T09:27:15.880Z</time>
      </trkpt>
      <trkpt lat="49.17957" lon="1.9519">
        <ele>108</ele>
        <time>2012-04-22T09:27:46.890Z</time>
      </trkpt>
      <trkpt lat="49.17847" lon="1.95212">
        <ele>108</ele>
        <time>2012-04-22T09:28:08.870Z</time>
      </trkpt>
      <trkpt lat="49.17722" lon="1.95272">
        <ele>106</ele>
        <time>2012-04-22T09:28:36.880Z</time>
      </trkpt>
      <trkpt lat="49.17508" lon="1.95375">
        <ele>114</ele>
        <time>2012-04-22T09:29:30.870Z</time>
      </trkpt>
      <trkpt lat="49.17248" lon="1.95302">
        <ele>105</ele>
        <time>2012-04-22T09:30:16.860Z</time>
      </trkpt>
      <trkpt lat="49.17052" lon="1.9529">
        <ele>102</ele>
        <time>2012-04-22T09:30:41.860Z</time>
      </trkpt>
      <trkpt lat="49.1693" lon="1.9531">
        <ele>111</ele>
        <time>2012-04-22T09:31:19.870Z</time>
      </trkpt>
      <trkpt lat="49.16498" lon="1.95282">
        <ele>107</ele>
        <time>2012-04-22T09:33:08.860Z</time>
      </trkpt>
      <trkpt lat="49.16227" lon="1.95308">
        <ele>108</ele>
        <time>2012-04-22T09:34:07.880Z</time>
      </trkpt>
      <trkpt lat="49.15873" lon="1.95445">
        <ele>99</ele>
        <time>2012-04-22T09:35:12.880Z</time>
      </trkpt>
      <trkpt lat="49.15723" lon="1.95317">
        <ele>99</ele>
        <time>2012-04-22T09:35:51.870Z</time>
      </trkpt>
      <trkpt lat="49.15645" lon="1.95158">
        <ele>98</ele>
        <time>2012-04-22T09:36:18.880Z</time>
      </trkpt>
      <trkpt lat="49.15587" lon="1.95188">
        <ele>103</ele>
        <time>2012-04-22T09:36:46.880Z</time>
      </trkpt>
      <trkpt lat="49.15545" lon="1.95223">
        <ele>106</ele>
        <time>2012-04-22T09:38:42.880Z</time>
      </trkpt>
      <trkpt lat="49.15432" lon="1.94883">
        <ele>106</ele>
        <time>2012-04-22T09:39:37.880Z</time>
      </trkpt>
      <trkpt lat="49.1543" lon="1.9462">
        <ele>106</ele>
        <time>2012-04-22T09:39:54.400Z</time>
      </trkpt>
      <trkpt lat="49.15177" lon="1.93955">
        <ele>106</ele>
        <time>2012-04-22T09:40:22.880Z</time>
      </trkpt>
      <trkpt lat="49.14823" lon="1.93253">
        <ele>106</ele>
        <time>2012-04-22T09:40:50.890Z</time>
      </trkpt>
      <trkpt lat="49.15362" lon="1.94308">
        <ele>71</ele>
        <time>2012-04-22T09:43:10.890Z</time>
      </trkpt>
      <trkpt lat="49.15382" lon="1.94173">
        <ele>73</ele>
        <time>2012-04-22T09:44:17.880Z</time>
      </trkpt>
      <trkpt lat="49.15497" lon="1.9397">
        <ele>70</ele>
        <time>2012-04-22T09:44:58.890Z</time>
      </trkpt>
      <trkpt lat="49.15602" lon="1.93842">
        <ele>69</ele>
        <time>2012-04-22T09:45:28.890Z</time>
      </trkpt>
      <trkpt lat="49.15727" lon="1.93787">
        <ele>69</ele>
        <time>2012-04-22T09:45:54.890Z</time>
      </trkpt>
      <trkpt lat="49.15888" lon="1.93698">
        <ele>69</ele>
        <time>2012-04-22T09:46:30.900Z</time>
      </trkpt>
    </trkseg>
  </trk>
</gpx>